Time;durP1;ratioP1;P1;durP2;ratioP2;P2;SDS_P1;SDS_P2;PMS_P1;PMS_P2;Temp;Humidity;BMP_temperature;BMP_pressure;BME280_temperature;BME280_humidity;BME280_pressure;Samples;Min_cycle;Max_cycle;Signal;HPM_P1;HPM_P2
2021/07/03 00:04:24;;;;;;;34.53;15.60;;;15.70;97.30;;;;;;4899179;29;20436;-92
2021/07/03 00:07:14;;;;;;;36.17;15.33;;;15.70;97.30;;;;;;4893910;29;20434;-92
2021/07/03 00:25:14;;;;;;;39.90;15.47;;;15.80;97.30;;;;;;5032510;28;20478;-93
2021/07/03 00:27:40;;;;;;;30.70;14.83;;;15.80;97.30;;;;;;5037878;23;20498;-88
2021/07/03 00:30:07;;;;;;;34.83;14.27;;;15.80;97.30;;;;;;5009661;28;20960;-88
2021/07/03 00:32:33;;;;;;;31.13;16.00;;;15.90;97.30;;;;;;4994623;28;20427;-88
2021/07/03 00:34:59;;;;;;;31.27;14.37;;;15.90;97.30;;;;;;4995312;28;20416;-87
2021/07/03 00:37:24;;;;;;;26.60;12.90;;;15.90;97.30;;;;;;4995936;28;20741;-88
2021/07/03 00:39:50;;;;;;;27.87;14.20;;;15.90;97.30;;;;;;4999801;28;20281;-88
2021/07/03 00:42:15;;;;;;;30.07;13.27;;;15.90;97.30;;;;;;5015856;28;20212;-88
2021/07/03 00:44:43;;;;;;;28.70;14.60;;;15.90;97.30;;;;;;5033196;28;20196;-91
2021/07/03 00:47:11;;;;;;;30.83;14.13;;;15.90;97.30;;;;;;5018167;28;20283;-88
2021/07/03 00:49:43;;;;;;;28.93;15.17;;;15.90;97.30;;;;;;5019149;28;20446;-88
2021/07/03 00:52:12;;;;;;;33.23;14.50;;;15.90;97.30;;;;;;5019423;28;20419;-88
2021/07/03 00:54:39;;;;;;;26.13;12.80;;;15.90;97.30;;;;;;5019935;28;20431;-88
2021/07/03 00:57:06;;;;;;;28.10;13.93;;;15.90;97.30;;;;;;5018854;28;20821;-88
2021/07/03 00:59:40;;;;;;;31.30;13.87;;;16.00;97.30;;;;;;5019616;28;20423;-88
2021/07/03 01:02:07;;;;;;;32.00;13.20;;;16.00;97.30;;;;;;5020506;28;20459;-87
2021/07/03 01:04:33;;;;;;;37.10;15.47;;;16.00;97.30;;;;;;5036775;28;20461;-87
2021/07/03 01:06:59;;;;;;;34.53;15.17;;;16.00;97.30;;;;;;5018398;28;20439;-87
2021/07/03 01:09:25;;;;;;;24.97;13.20;;;16.00;97.30;;;;;;5018818;28;20419;-88
2021/07/03 01:11:51;;;;;;;39.37;17.17;;;16.10;97.30;;;;;;5018771;28;20411;-88
2021/07/03 01:14:18;;;;;;;26.13;13.73;;;16.10;97.30;;;;;;5018494;28;20314;-89
2021/07/03 01:16:45;;;;;;;30.30;14.40;;;16.10;97.30;;;;;;5018170;28;20439;-89
2021/07/03 01:19:11;;;;;;;31.33;15.70;;;16.10;97.30;;;;;;5018145;28;20426;-88
2021/07/03 01:21:37;;;;;;;29.80;13.60;;;16.10;97.30;;;;;;5018493;28;20458;-88
2021/07/03 01:24:03;;;;;;;28.10;13.10;;;16.00;97.30;;;;;;5018952;28;21086;-87
2021/07/03 01:26:40;;;;;;;28.97;12.57;;;16.00;97.30;;;;;;5036406;28;20298;-89
2021/07/03 01:29:06;;;;;;;32.23;13.73;;;16.00;97.30;;;;;;5019050;28;20411;-88
2021/07/03 01:31:31;;;;;;;27.97;12.60;;;15.90;97.30;;;;;;5018968;28;20998;-89
2021/07/03 01:33:59;;;;;;;29.27;13.33;;;15.90;97.30;;;;;;5019202;28;20211;-89
2021/07/03 01:36:25;;;;;;;24.73;13.23;;;15.90;97.30;;;;;;5019503;28;20615;-89
2021/07/03 01:38:52;;;;;;;28.27;13.17;;;15.80;97.30;;;;;;5019905;28;20919;-89
2021/07/03 01:41:18;;;;;;;28.50;13.97;;;15.80;97.30;;;;;;5019814;28;20208;-89
2021/07/03 01:43:43;;;;;;;27.73;13.77;;;15.80;97.30;;;;;;5037170;28;20431;-89
2021/07/03 01:46:11;;;;;;;25.47;13.03;;;15.70;97.30;;;;;;5019644;28;20196;-89
2021/07/03 01:48:41;;;;;;;29.17;13.63;;;15.70;97.30;;;;;;5018813;28;20173;-89
2021/07/03 01:51:07;;;;;;;28.87;14.30;;;15.60;97.30;;;;;;5017675;28;20466;-89
2021/07/03 01:53:32;;;;;;;30.77;15.83;;;15.60;97.30;;;;;;5017633;28;20786;-89
2021/07/03 01:56:00;;;;;;;27.47;13.77;;;15.60;97.30;;;;;;5017122;28;20180;-90
2021/07/03 01:58:26;;;;;;;30.70;14.57;;;15.50;97.30;;;;;;5034233;28;20172;-90
2021/07/03 02:00:54;;;;;;;34.27;14.47;;;15.50;97.30;;;;;;5017449;28;20415;-89
2021/07/03 02:03:20;;;;;;;33.20;14.90;;;15.50;97.30;;;;;;5017202;28;20934;-89
2021/07/03 02:05:46;;;;;;;28.13;13.40;;;15.50;97.30;;;;;;5017512;28;20925;-89
2021/07/03 02:08:12;;;;;;;26.53;14.17;;;15.50;97.30;;;;;;5018314;28;20451;-89
2021/07/03 02:10:39;;;;;;;29.40;14.87;;;15.40;97.30;;;;;;5017863;28;20791;-89
2021/07/03 02:13:05;;;;;;;27.37;13.67;;;15.40;97.30;;;;;;5018100;28;20510;-89
2021/07/03 02:15:32;;;;;;;28.80;14.13;;;15.40;97.30;;;;;;5018119;28;20446;-89
2021/07/03 02:17:57;;;;;;;29.63;13.87;;;15.50;97.30;;;;;;5018714;28;20219;-90
2021/07/03 02:20:23;;;;;;;25.83;13.93;;;15.50;97.30;;;;;;5036627;28;20399;-89
2021/07/03 02:22:50;;;;;;;34.93;14.87;;;15.40;97.30;;;;;;5019780;28;20564;-89
2021/07/03 02:25:15;;;;;;;26.27;13.27;;;15.40;97.30;;;;;;5018921;28;20419;-90
2021/07/03 02:27:41;;;;;;;30.33;14.17;;;15.30;97.30;;;;;;5018741;28;20478;-90
2021/07/03 02:30:10;;;;;;;24.40;12.40;;;15.30;97.30;;;;;;5018855;28;20271;-89
2021/07/03 02:32:38;;;;;;;25.20;12.50;;;15.20;97.30;;;;;;5017875;28;20212;-90
2021/07/03 02:35:04;;;;;;;28.43;13.50;;;15.20;97.30;;;;;;5016858;28;20430;-90
2021/07/03 02:37:30;;;;;;;30.40;14.30;;;15.10;97.30;;;;;;5016898;28;20458;-89
2021/07/03 02:39:55;;;;;;;35.80;14.30;;;15.10;97.30;;;;;;5034586;28;20902;-89
2021/07/03 02:42:21;;;;;;;29.37;13.87;;;15.00;97.30;;;;;;5016803;28;20208;-89
2021/07/03 02:44:46;;;;;;;25.77;13.53;;;15.00;97.30;;;;;;5034596;28;20174;-89
2021/07/03 02:47:12;;;;;;;27.83;12.70;;;15.00;97.30;;;;;;5016435;28;20196;-90
2021/07/03 02:49:38;;;;;;;28.97;12.07;;;15.00;97.30;;;;;;5016832;28;20774;-90
2021/07/03 02:52:03;;;;;;;29.23;12.33;;;15.00;97.30;;;;;;5017578;28;20203;-90
2021/07/03 02:54:29;;;;;;;32.00;12.70;;;15.00;97.30;;;;;;5035027;28;20227;-89
2021/07/03 02:56:57;;;;;;;26.53;13.00;;;14.90;97.30;;;;;;5017207;28;20200;-90
2021/07/03 02:59:24;;;;;;;31.13;14.80;;;14.80;97.30;;;;;;5017136;28;20207;-89
2021/07/03 03:01:50;;;;;;;25.67;13.20;;;14.80;97.30;;;;;;5017324;28;20473;-90
2021/07/03 03:04:15;;;;;;;30.27;14.00;;;14.80;97.30;;;;;;5018039;28;20407;-90
2021/07/03 03:06:41;;;;;;;32.07;14.30;;;14.80;97.30;;;;;;5018421;28;20204;-89
2021/07/03 03:09:06;;;;;;;27.93;13.47;;;14.70;97.30;;;;;;5017909;28;20230;-90
2021/07/03 03:11:32;;;;;;;33.67;14.10;;;14.70;97.30;;;;;;5018321;28;20185;-90
2021/07/03 03:13:57;;;;;;;27.57;13.90;;;14.70;97.30;;;;;;5017791;28;20191;-89
2021/07/03 03:16:24;;;;;;;24.97;12.30;;;14.70;97.30;;;;;;5017255;28;20282;-89
2021/07/03 03:18:50;;;;;;;30.03;12.90;;;14.60;97.30;;;;;;5016560;28;20565;-89
2021/07/03 03:21:15;;;;;;;26.93;12.80;;;14.60;97.30;;;;;;5015043;28;20458;-90
2021/07/03 03:23:41;;;;;;;32.43;14.50;;;14.60;97.30;;;;;;5015457;28;20185;-90
2021/07/03 03:26:07;;;;;;;26.00;12.20;;;14.60;97.30;;;;;;5015708;28;20301;-89
2021/07/03 03:28:32;;;;;;;28.30;12.83;;;14.60;97.30;;;;;;5033575;28;20157;-90
2021/07/03 03:30:58;;;;;;;26.53;11.50;;;14.50;97.30;;;;;;5015764;28;20420;-90
2021/07/03 03:33:23;;;;;;;31.10;12.80;;;14.50;97.30;;;;;;5015605;28;20168;-90
2021/07/03 03:35:49;;;;;;;22.43;11.13;;;14.50;97.30;;;;;;5016597;28;20210;-90
2021/07/03 03:38:14;;;;;;;29.13;13.67;;;14.50;97.30;;;;;;5034243;28;20180;-89
2021/07/03 03:40:42;;;;;;;31.77;14.27;;;14.50;97.30;;;;;;5016332;28;20176;-90
2021/07/03 03:43:08;;;;;;;32.73;13.83;;;14.50;97.30;;;;;;5016394;28;20200;-89
2021/07/03 03:45:33;;;;;;;29.37;12.80;;;14.50;97.30;;;;;;5016839;28;20544;-90
2021/07/03 03:48:01;;;;;;;28.60;13.90;;;14.60;97.30;;;;;;5016798;28;20717;-89
2021/07/03 03:50:26;;;;;;;29.97;13.13;;;14.60;97.30;;;;;;5017307;28;20218;-89
2021/07/03 03:52:52;;;;;;;26.63;12.17;;;14.70;97.30;;;;;;5017669;28;20942;-89
2021/07/03 03:55:17;;;;;;;26.40;12.53;;;14.70;97.30;;;;;;5017781;28;20271;-90
2021/07/03 03:57:43;;;;;;;24.60;12.83;;;14.80;97.30;;;;;;5016973;28;20188;-89
2021/07/03 04:00:10;;;;;;;22.53;12.73;;;14.80;97.30;;;;;;5017289;28;20547;-89
2021/07/03 04:02:35;;;;;;;22.53;12.80;;;14.80;97.30;;;;;;5015358;28;20200;-90
2021/07/03 04:05:01;;;;;;;24.40;13.87;;;14.80;97.30;;;;;;5013930;28;20414;-90
2021/07/03 04:07:27;;;;;;;28.60;13.47;;;14.80;97.30;;;;;;5014166;28;20550;-90
2021/07/03 04:09:54;;;;;;;35.43;15.87;;;14.80;97.30;;;;;;5015018;28;20183;-90
2021/07/03 04:12:20;;;;;;;29.43;14.07;;;14.90;97.30;;;;;;5014629;28;20187;-90
2021/07/03 04:14:46;;;;;;;23.60;13.20;;;14.90;97.30;;;;;;5014574;28;20415;-90
2021/07/03 04:33:17;;;;;;;26.97;13.10;;;14.90;97.30;;;;;;5030738;28;20494;-89
2021/07/03 04:35:42;;;;;;;30.50;14.80;;;14.90;97.30;;;;;;5016873;28;20814;-89
2021/07/03 04:38:08;;;;;;;26.33;12.90;;;15.00;97.30;;;;;;5016749;28;20776;-89
2021/07/03 04:40:34;;;;;;;23.23;12.77;;;15.00;97.30;;;;;;5016934;28;20634;-89
2021/07/03 04:42:59;;;;;;;25.20;14.30;;;15.00;97.30;;;;;;5017209;28;20322;-89
2021/07/03 04:45:25;;;;;;;27.57;13.50;;;15.00;97.30;;;;;;5017425;28;20177;-89
2021/07/03 04:51:44;;;;;;;27.80;13.87;;;15.00;97.30;;;;;;5007555;28;20312;-91
2021/07/03 04:54:15;;;;;;;24.67;13.37;;;15.10;97.30;;;;;;4996590;28;20413;-91
2021/07/03 04:56:44;;;;;;;28.20;14.17;;;15.10;97.30;;;;;;4996560;28;20482;-91
2021/07/03 04:59:35;;;;;;;26.77;13.80;;;15.10;97.30;;;;;;5014250;28;20769;-91
2021/07/03 05:06:05;;;;;;;;;;;;;;;;;;;;;
2021/07/03 05:09:12;;;;;;;28.30;13.90;;;15.10;97.30;;;;;;4937171;28;20430;-91
2021/07/03 05:11:44;;;;;;;34.07;15.43;;;15.10;97.30;;;;;;4995138;28;20420;-91
2021/07/03 05:14:25;;;;;;;30.07;14.47;;;15.10;97.30;;;;;;4993373;28;20950;-92
2021/07/03 05:17:55;;;;;;;26.60;13.80;;;15.10;97.30;;;;;;4999511;28;20431;-91
2021/07/03 05:21:05;;;;;;;27.07;14.07;;;15.10;97.30;;;;;;5005249;28;20430;-90
2021/07/03 05:23:34;;;;;;;27.03;14.10;;;15.20;97.30;;;;;;4997329;28;20427;-91
2021/07/03 05:26:05;;;;;;;26.17;14.20;;;15.10;97.30;;;;;;5016154;28;20426;-92
2021/07/03 05:28:34;;;;;;;28.50;13.53;;;15.10;97.30;;;;;;5023104;28;20411;-92
2021/07/03 05:31:34;;;;;;;28.83;14.77;;;15.10;97.30;;;;;;5026349;28;20406;-92
2021/07/03 05:34:05;;;;;;;28.93;15.93;;;15.20;97.30;;;;;;5025955;28;20412;-92
2021/07/03 05:36:35;;;;;;;29.87;15.37;;;15.20;97.30;;;;;;5019967;28;20450;-91
2021/07/03 05:39:55;;;;;;;27.97;14.87;;;15.30;97.30;;;;;;5022195;28;20647;-92
2021/07/03 05:42:55;;;;;;;25.20;13.03;;;15.40;97.30;;;;;;4997529;28;20455;-92
2021/07/03 05:46:25;;;;;;;;;;;;;;;;;;;;;
2021/07/03 05:49:56;;;;;;;;;;;;;;;;;;;;;
2021/07/03 05:52:21;;;;;;;26.57;14.20;;;15.70;97.30;;;;;;4984648;22;20599;-82
2021/07/03 05:54:51;;;;;;;25.80;13.27;;;15.70;97.30;;;;;;5011316;28;20509;-82
2021/07/03 05:57:17;;;;;;;29.50;14.23;;;15.80;97.30;;;;;;4994609;28;20178;-82
2021/07/03 05:59:42;;;;;;;32.93;14.13;;;15.90;97.30;;;;;;4993812;28;20502;-82
2021/07/03 06:02:08;;;;;;;29.57;12.30;;;16.00;97.30;;;;;;5010411;28;20221;-82
2021/07/03 06:04:34;;;;;;;39.80;12.97;;;16.00;97.30;;;;;;5014389;28;20199;-82
2021/07/03 06:07:00;;;;;;;29.67;14.30;;;16.10;97.30;;;;;;4999384;28;20916;-82
2021/07/03 06:09:26;;;;;;;26.83;13.63;;;16.20;97.30;;;;;;5012522;28;20618;-86
2021/07/03 06:11:52;;;;;;;30.87;12.90;;;16.20;97.30;;;;;;5006770;28;20822;-82
2021/07/03 06:14:22;;;;;;;28.57;13.17;;;16.30;97.30;;;;;;4995660;28;20223;-83
2021/07/03 06:16:51;;;;;;;24.73;12.70;;;16.40;97.30;;;;;;4997090;28;20428;-83
2021/07/03 06:19:20;;;;;;;30.53;14.90;;;16.40;97.30;;;;;;4997478;28;20413;-84
2021/07/03 06:21:46;;;;;;;23.40;13.03;;;16.50;97.30;;;;;;5002430;28;20820;-84
2021/07/03 06:24:13;;;;;;;34.10;14.53;;;16.50;97.30;;;;;;5016813;28;20424;-84
2021/07/03 06:26:41;;;;;;;28.83;14.60;;;16.60;97.30;;;;;;5013286;28;20703;-84
2021/07/03 06:29:07;;;;;;;23.17;11.73;;;16.60;97.30;;;;;;4993972;28;20421;-84
2021/07/03 06:31:32;;;;;;;23.67;12.27;;;16.70;97.30;;;;;;4981122;28;20449;-84
2021/07/03 06:33:58;;;;;;;28.70;13.30;;;16.70;97.30;;;;;;4981304;28;20189;-84
2021/07/03 06:36:25;;;;;;;28.70;12.87;;;16.80;97.30;;;;;;4980537;28;20182;-84
2021/07/03 06:38:51;;;;;;;23.10;12.10;;;16.80;97.30;;;;;;4981137;28;20177;-84
2021/07/03 06:41:17;;;;;;;25.40;12.20;;;16.90;97.30;;;;;;4981038;28;20781;-84
2021/07/03 06:43:42;;;;;;;27.00;13.70;;;17.00;97.30;;;;;;4996015;28;20421;-85
2021/07/03 06:46:08;;;;;;;25.57;12.67;;;17.00;97.30;;;;;;4995186;28;20272;-82
2021/07/03 06:48:34;;;;;;;19.90;12.17;;;17.10;97.30;;;;;;4995431;28;20170;-84
2021/07/03 06:51:02;;;;;;;29.47;12.60;;;17.10;97.30;;;;;;4996718;28;20198;-83
2021/07/03 06:53:28;;;;;;;27.53;13.37;;;17.20;97.30;;;;;;4996999;28;20500;-82
2021/07/03 06:55:53;;;;;;;25.83;13.73;;;17.20;97.30;;;;;;4997893;28;20437;-83
2021/07/03 06:58:19;;;;;;;23.40;11.30;;;17.30;97.30;;;;;;4997343;28;20889;-82
2021/07/03 07:00:45;;;;;;;22.77;13.33;;;17.40;97.30;;;;;;5011906;28;20305;-82
2021/07/03 07:03:10;;;;;;;22.30;12.77;;;17.40;97.30;;;;;;4999789;28;20209;-82
2021/07/03 07:05:36;;;;;;;23.93;12.50;;;17.50;97.30;;;;;;4996009;28;20269;-82
2021/07/03 07:08:01;;;;;;;23.57;12.27;;;17.50;97.30;;;;;;4993734;28;20577;-82
2021/07/03 07:10:27;;;;;;;24.20;13.23;;;17.60;97.30;;;;;;5007948;28;20188;-82
2021/07/03 07:12:52;;;;;;;23.23;11.60;;;17.70;97.30;;;;;;4997396;28;20174;-82
2021/07/03 07:15:18;;;;;;;21.47;11.17;;;17.70;97.30;;;;;;5003431;28;20170;-83
2021/07/03 07:17:44;;;;;;;19.33;11.50;;;17.80;97.30;;;;;;5005616;28;20174;-82
2021/07/03 07:20:12;;;;;;;20.87;11.13;;;17.80;97.30;;;;;;4988785;28;20181;-82
2021/07/03 07:22:41;;;;;;;20.83;12.10;;;17.90;97.30;;;;;;5000385;28;20617;-82
2021/07/03 07:25:07;;;;;;;20.73;12.00;;;18.00;97.30;;;;;;4988637;28;20452;-82
2021/07/03 07:27:41;;;;;;;24.93;11.23;;;18.10;97.30;;;;;;4988747;28;20461;-81
2021/07/03 07:30:08;;;;;;;21.53;11.43;;;18.10;97.30;;;;;;4993415;28;20487;-81
2021/07/03 07:32:33;;;;;;;19.17;11.50;;;18.20;97.30;;;;;;4993962;28;20440;-82
2021/07/03 07:34:59;;;;;;;20.57;11.97;;;18.20;97.30;;;;;;4985103;28;20428;-84
2021/07/03 07:37:26;;;;;;;21.00;12.20;;;18.30;97.30;;;;;;5001178;28;20200;-82
2021/07/03 07:39:52;;;;;;;21.57;11.70;;;18.40;97.30;;;;;;5002736;28;20178;-82
2021/07/03 07:42:17;;;;;;;21.13;11.50;;;18.40;97.30;;;;;;4999303;28;20509;-82
2021/07/03 07:44:43;;;;;;;21.17;11.60;;;18.50;97.30;;;;;;4996628;28;20262;-82
2021/07/03 07:47:09;;;;;;;23.10;13.03;;;18.60;97.30;;;;;;4981525;28;20524;-82
2021/07/03 07:49:35;;;;;;;19.80;12.03;;;18.60;97.30;;;;;;5006812;28;20170;-82
2021/07/03 07:52:01;;;;;;;23.00;12.77;;;18.70;97.30;;;;;;5008034;28;20220;-83
2021/07/03 07:54:26;;;;;;;20.07;13.03;;;18.70;97.30;;;;;;5001728;28;20952;-83
2021/07/03 07:56:52;;;;;;;20.03;11.70;;;18.80;97.30;;;;;;5011708;28;20185;-83
2021/07/03 07:59:18;;;;;;;21.40;11.73;;;19.00;97.30;;;;;;4994796;28;20244;-82
2021/07/03 08:01:43;;;;;;;23.97;13.00;;;19.10;97.30;;;;;;5011791;28;20457;-82
2021/07/03 08:04:09;;;;;;;25.20;13.50;;;19.20;97.30;;;;;;5011472;28;20639;-83
2021/07/03 08:06:35;;;;;;;19.90;11.80;;;19.30;97.30;;;;;;5003257;28;20195;-83
2021/07/03 08:09:00;;;;;;;22.70;11.57;;;19.40;97.30;;;;;;5013745;28;20552;-82
2021/07/03 08:11:26;;;;;;;18.37;11.50;;;19.50;97.30;;;;;;5009102;28;20511;-82
2021/07/03 08:13:52;;;;;;;28.80;13.53;;;19.60;97.30;;;;;;5009974;28;20196;-81
2021/07/03 08:16:17;;;;;;;19.90;12.70;;;19.70;97.30;;;;;;5013387;28;20185;-82
2021/07/03 08:18:43;;;;;;;21.27;12.40;;;19.70;97.30;;;;;;5001205;28;20213;-84
2021/07/03 08:21:09;;;;;;;18.43;10.87;;;19.70;97.30;;;;;;4995182;28;20209;-82
2021/07/03 08:23:34;;;;;;;21.10;11.33;;;19.70;97.30;;;;;;4998569;28;20178;-83
2021/07/03 08:26:00;;;;;;;25.50;11.83;;;19.70;97.30;;;;;;5015471;28;20173;-83
2021/07/03 08:28:29;;;;;;;16.97;10.77;;;19.70;97.30;;;;;;5002882;28;20197;-84
2021/07/03 08:30:55;;;;;;;14.03;9.47;;;19.70;97.30;;;;;;5020198;28;20197;-83
2021/07/03 08:33:24;;;;;;;12.87;8.57;;;19.60;97.30;;;;;;5015956;28;20828;-82
2021/07/03 08:35:54;;;;;;;18.30;11.90;;;19.60;97.30;;;;;;5004245;28;20165;-83
2021/07/03 08:38:20;;;;;;;20.67;12.80;;;19.50;97.30;;;;;;5011180;28;20408;-84
2021/07/03 08:40:45;;;;;;;15.47;9.70;;;19.50;97.30;;;;;;5012516;28;20826;-83
2021/07/03 08:43:11;;;;;;;14.60;9.70;;;19.50;97.30;;;;;;5013975;28;20208;-84
2021/07/03 08:45:37;;;;;;;15.60;10.23;;;19.50;97.30;;;;;;5013607;28;20169;-84
2021/07/03 08:48:03;;;;;;;22.73;11.10;;;19.70;97.30;;;;;;4999790;28;20181;-85
2021/07/03 08:50:29;;;;;;;15.27;9.70;;;19.80;97.30;;;;;;4981537;28;20499;-84
2021/07/03 08:52:54;;;;;;;19.60;11.07;;;19.80;97.30;;;;;;4990586;28;20734;-83
2021/07/03 08:55:21;;;;;;;19.67;10.17;;;19.90;97.30;;;;;;4989902;28;20615;-83
2021/07/03 08:57:51;;;;;;;13.67;10.40;;;20.10;97.30;;;;;;4989890;28;20196;-83
2021/07/03 09:00:39;;;;;;;16.73;9.60;;;20.10;97.30;;;;;;4990663;28;20428;-83
2021/07/03 09:03:20;;;;;;;15.40;8.07;;;20.20;97.30;;;;;;4992479;28;20695;-83
2021/07/03 09:05:57;;;;;;;20.30;9.23;;;20.20;97.20;;;;;;4985730;28;20460;-83
2021/07/03 09:08:25;;;;;;;14.03;8.43;;;20.20;97.20;;;;;;4976414;28;20490;-83
2021/07/03 09:11:05;;;;;;;14.20;8.60;;;20.20;96.40;;;;;;4975084;28;20466;-83
2021/07/03 09:13:31;;;;;;;17.73;10.70;;;20.20;97.20;;;;;;4974430;28;20505;-83
2021/07/03 09:15:57;;;;;;;18.27;11.37;;;20.10;97.30;;;;;;4994132;28;20446;-83
2021/07/03 09:18:25;;;;;;;15.73;9.87;;;20.20;97.30;;;;;;5012219;28;20541;-83
2021/07/03 09:20:52;;;;;;;15.73;10.23;;;20.40;97.30;;;;;;4993779;28;20956;-83
2021/07/03 09:23:23;;;;;;;15.13;7.80;;;20.60;97.00;;;;;;4977820;28;21007;-82
2021/07/03 09:25:54;;;;;;;13.97;8.43;;;20.80;95.90;;;;;;4991958;28;20794;-82
2021/07/03 09:28:21;;;;;;;11.53;7.40;;;20.90;95.10;;;;;;5009247;28;20423;-83
2021/07/03 09:30:49;;;;;;;11.77;7.93;;;20.90;95.60;;;;;;5012770;28;20999;-83
2021/07/03 09:33:45;;;;;;;17.87;7.37;;;20.90;95.40;;;;;;4996714;28;20432;-82
2021/07/03 09:36:14;;;;;;;11.00;7.40;;;20.90;95.80;;;;;;4995234;28;20432;-84
2021/07/03 09:38:41;;;;;;;12.13;7.30;;;20.90;94.40;;;;;;4992657;28;20443;-83
2021/07/03 09:41:33;;;;;;;14.37;8.00;;;20.90;95.70;;;;;;4996694;28;20451;-82
2021/07/03 09:44:08;;;;;;;12.23;8.00;;;20.90;95.70;;;;;;4998602;28;20423;-83
2021/07/03 09:46:51;;;;;;;11.97;8.83;;;20.90;94.20;;;;;;4997802;28;20428;-83
2021/07/03 09:49:19;;;;;;;17.27;10.10;;;20.80;94.90;;;;;;4992988;28;20417;-83
2021/07/03 09:51:47;;;;;;;13.97;9.40;;;20.80;95.60;;;;;;4997412;28;20894;-83
2021/07/03 09:54:15;;;;;;;12.40;8.37;;;20.70;95.00;;;;;;4995648;28;20463;-83
2021/07/03 09:56:43;;;;;;;10.87;8.10;;;20.70;96.00;;;;;;4998036;28;20470;-83
2021/07/03 09:59:10;;;;;;;15.70;9.10;;;20.70;96.30;;;;;;5008408;28;20440;-83
2021/07/03 10:01:39;;;;;;;12.30;7.80;;;20.80;95.70;;;;;;4998468;28;20479;-83
2021/07/03 10:04:06;;;;;;;12.90;7.80;;;20.90;94.50;;;;;;5011282;28;20420;-83
2021/07/03 10:06:41;;;;;;;13.87;7.37;;;20.90;92.80;;;;;;5000977;28;20432;-83
2021/07/03 10:09:12;;;;;;;10.70;7.00;;;20.90;93.50;;;;;;4995767;28;20412;-83
2021/07/03 10:11:44;;;;;;;10.93;7.53;;;21.00;94.50;;;;;;4992223;28;20456;-83
2021/07/03 10:14:11;;;;;;;10.83;7.03;;;21.00;94.80;;;;;;5005866;28;20486;-83
2021/07/03 10:16:36;;;;;;;11.90;6.60;;;21.00;94.60;;;;;;5011071;28;20769;-83
2021/07/03 10:19:14;;;;;;;9.87;6.90;;;21.10;93.90;;;;;;5005449;28;20476;-84
2021/07/03 10:21:43;;;;;;;8.87;6.00;;;21.20;93.10;;;;;;4992886;28;20214;-83
2021/07/03 10:24:16;;;;;;;10.37;6.20;;;21.40;94.00;;;;;;4992801;28;20784;-83
2021/07/03 10:26:42;;;;;;;13.50;6.50;;;21.60;93.60;;;;;;4993327;28;20420;-83
2021/07/03 10:29:17;;;;;;;9.57;7.07;;;21.80;93.00;;;;;;5000256;28;20436;-83
2021/07/03 10:31:43;;;;;;;10.43;7.20;;;22.00;92.50;;;;;;5012982;28;20201;-84
2021/07/03 10:34:08;;;;;;;10.00;6.70;;;22.10;94.30;;;;;;4992081;28;20496;-83
2021/07/03 10:36:34;;;;;;;10.80;6.97;;;22.20;91.40;;;;;;4977075;28;20592;-84
2021/07/03 10:39:01;;;;;;;7.60;5.97;;;22.20;91.10;;;;;;4977443;28;20236;-83
2021/07/03 10:41:32;;;;;;;8.57;6.30;;;22.30;90.30;;;;;;4977164;28;20213;-83
2021/07/03 10:44:11;;;;;;;7.63;6.13;;;22.40;91.60;;;;;;4991478;28;20421;-84
2021/07/03 10:49:10;;;;;;;11.90;6.43;;;22.70;92.90;;;;;;4991206;28;20509;-87
2021/07/03 10:51:41;;;;;;;12.10;7.23;;;22.80;90.60;;;;;;4996102;28;20428;-87
2021/07/03 10:57:04;;;;;;;9.23;5.87;;;22.50;88.20;;;;;;5009123;23;20509;-82
2021/07/03 10:59:38;;;;;;;9.27;6.10;;;22.50;89.60;;;;;;5036907;28;20416;-81
2021/07/03 11:02:05;;;;;;;8.50;5.63;;;22.60;90.10;;;;;;5037342;28;20518;-81
2021/07/03 11:04:52;;;;;;;6.33;5.00;;;22.70;89.60;;;;;;5031660;28;20479;-81
2021/07/03 11:07:20;;;;;;;7.70;5.30;;;22.80;86.60;;;;;;5031270;28;20764;-82
2021/07/03 11:09:46;;;;;;;9.30;6.10;;;22.90;87.00;;;;;;5038350;28;20431;-81
2021/07/03 11:12:27;;;;;;;9.57;6.80;;;22.90;86.60;;;;;;5037628;28;20443;-82
2021/07/03 11:14:57;;;;;;;10.00;6.40;;;22.70;87.60;;;;;;5036678;28;20458;-81
2021/07/03 11:17:26;;;;;;;9.90;6.70;;;22.60;89.10;;;;;;5028683;28;20416;-82
2021/07/03 11:19:54;;;;;;;9.97;6.43;;;22.70;89.60;;;;;;5022790;28;20434;-81
2021/07/03 11:22:22;;;;;;;12.17;6.37;;;22.80;89.80;;;;;;5037692;28;20534;-82
2021/07/03 11:24:49;;;;;;;7.37;5.17;;;23.00;89.60;;;;;;5020049;28;20471;-81
2021/07/03 11:27:35;;;;;;;6.40;5.20;;;23.10;87.80;;;;;;5042878;28;20746;-81
2021/07/03 11:30:07;;;;;;;9.30;5.50;;;23.30;89.80;;;;;;5031420;28;20462;-82
2021/07/03 11:32:33;;;;;;;6.57;5.33;;;23.40;86.70;;;;;;5016075;28;20440;-82
2021/07/03 11:35:02;;;;;;;6.80;5.43;;;23.50;86.20;;;;;;5018916;28;20436;-81
2021/07/03 11:37:29;;;;;;;7.93;5.53;;;23.40;84.40;;;;;;5017882;28;20416;-82
2021/07/03 11:39:56;;;;;;;6.50;5.33;;;23.20;85.10;;;;;;5018377;28;20464;-81
2021/07/03 11:42:34;;;;;;;9.40;5.70;;;23.20;87.50;;;;;;5027598;28;20479;-81
2021/07/03 11:45:00;;;;;;;8.83;6.13;;;23.00;86.40;;;;;;5022419;28;20427;-81
2021/07/03 11:47:51;;;;;;;6.93;5.70;;;22.90;87.40;;;;;;5035734;28;20408;-82
2021/07/03 11:50:26;;;;;;;7.57;5.80;;;23.00;86.70;;;;;;5022259;28;20431;-82
2021/07/03 11:52:53;;;;;;;6.63;5.43;;;23.00;86.80;;;;;;5029462;28;20445;-81
2021/07/03 11:55:21;;;;;;;13.97;6.30;;;23.20;87.50;;;;;;5052528;28;20422;-81
2021/07/03 11:57:48;;;;;;;7.13;5.37;;;23.20;86.40;;;;;;5056759;28;20446;-81
2021/07/03 12:00:17;;;;;;;7.17;6.00;;;23.30;87.40;;;;;;5039629;28;20474;-81
2021/07/03 12:02:43;;;;;;;7.60;5.90;;;23.40;87.40;;;;;;5034804;28;20472;-81
2021/07/03 12:05:10;;;;;;;9.93;6.57;;;23.50;87.30;;;;;;5035489;28;20462;-82
2021/07/03 12:07:36;;;;;;;8.30;5.70;;;23.70;90.40;;;;;;5040005;22;20492;-83
2021/07/03 12:10:10;;;;;;;7.33;5.53;;;23.80;89.40;;;;;;5019169;28;20437;-82
2021/07/03 12:12:38;;;;;;;8.23;5.27;;;24.00;85.80;;;;;;5040960;28;20682;-83
2021/07/03 12:15:06;;;;;;;6.63;5.30;;;24.10;87.70;;;;;;5022326;28;20430;-83
2021/07/03 12:17:32;;;;;;;7.20;5.60;;;24.10;84.90;;;;;;5001990;28;20436;-83
2021/07/03 12:20:09;;;;;;;6.47;4.97;;;24.20;88.50;;;;;;5005257;28;20447;-83
2021/07/03 12:22:36;;;;;;;6.93;5.00;;;24.20;84.50;;;;;;4997059;28;20600;-83
2021/07/03 12:25:16;;;;;;;6.50;4.83;;;24.10;83.40;;;;;;5042798;23;20525;-87
2021/07/03 12:27:50;;;;;;;6.53;4.80;;;24.10;84.20;;;;;;5001220;28;20476;-88
2021/07/03 12:30:19;;;;;;;6.00;4.70;;;24.20;86.00;;;;;;5005543;28;20995;-87
2021/07/03 12:32:45;;;;;;;5.70;4.63;;;24.40;87.30;;;;;;5026590;28;20418;-87
2021/07/03 12:35:13;;;;;;;5.20;4.60;;;24.50;81.60;;;;;;4992555;28;20436;-87
2021/07/03 12:37:39;;;;;;;6.20;4.30;;;24.70;82.20;;;;;;4983967;28;20182;-88
2021/07/03 12:40:14;;;;;;;10.80;5.27;;;24.80;81.60;;;;;;5006995;28;20495;-87
2021/07/03 12:42:40;;;;;;;7.03;5.30;;;24.80;82.70;;;;;;5005559;28;20452;-89
2021/07/03 12:45:06;;;;;;;10.73;5.17;;;24.90;84.50;;;;;;5005088;28;20695;-88
2021/07/03 12:47:32;;;;;;;8.43;5.07;;;25.10;88.60;;;;;;4982754;28;20417;-88
2021/07/03 12:50:01;;;;;;;9.90;5.17;;;25.30;84.20;;;;;;4987377;28;20412;-87
2021/07/03 12:52:37;;;;;;;6.80;5.33;;;25.40;83.40;;;;;;4987709;28;20179;-87
2021/07/03 12:55:05;;;;;;;8.80;5.10;;;25.40;81.90;;;;;;4993617;28;20773;-87
2021/07/03 12:57:45;;;;;;;5.80;4.50;;;25.30;81.30;;;;;;4994590;28;20428;-87
2021/07/03 13:00:12;;;;;;;6.00;4.97;;;25.10;81.80;;;;;;4996257;28;20421;-88
2021/07/03 13:02:38;;;;;;;7.13;5.30;;;25.00;83.80;;;;;;5000063;28;20805;-87
2021/07/03 13:05:05;;;;;;;6.13;5.03;;;25.20;84.70;;;;;;4999176;28;20466;-87
2021/07/03 13:07:31;;;;;;;6.50;4.77;;;25.30;85.30;;;;;;5005154;28;20423;-87
2021/07/03 13:09:57;;;;;;;12.17;5.60;;;25.50;82.40;;;;;;4990106;28;20512;-87
2021/07/03 13:12:23;;;;;;;6.53;4.63;;;25.50;85.30;;;;;;4996705;28;20512;-88
2021/07/03 13:14:48;;;;;;;7.13;4.97;;;25.60;81.70;;;;;;4996443;28;20758;-88
2021/07/03 13:17:14;;;;;;;7.60;4.80;;;25.60;82.50;;;;;;4998578;28;20177;-88
2021/07/03 13:19:39;;;;;;;10.20;5.03;;;25.70;80.80;;;;;;5008893;28;20271;-88
2021/07/03 13:22:05;;;;;;;8.23;5.10;;;25.60;79.50;;;;;;4999157;28;20208;-88
2021/07/03 13:24:31;;;;;;;5.73;4.77;;;25.60;82.60;;;;;;4998317;28;20327;-88
2021/07/03 13:26:56;;;;;;;6.80;4.47;;;25.70;84.20;;;;;;4993984;28;20182;-87
2021/07/03 13:29:22;;;;;;;5.53;4.90;;;25.80;84.20;;;;;;4996165;28;20177;-88
2021/07/03 13:35:54;;;;;;;5.60;4.50;;;26.00;80.40;;;;;;4931588;28;20226;-88
2021/07/03 13:42:16;;;;;;;6.73;4.90;;;26.30;78.40;;;;;;5015651;28;20455;-86